Terminal Aerodrome Forecast
Issued by NWS

Home | Current Version | Previous Version | Text Only | Print | Product List | Glossary On
Versions: 1 2 3 4 5 6 7 8 9 10 11 12 13 14 15 16 17 18 19 20 21 22 23 24 25 26 27 28
000
FTUS43 KGLD 252351
TAFMCK
TAF
KMCK 252351Z 2600/2624 VRB05KT P6SM OVC090
     FM260300 29012KT P6SM BKN030
     FM260800 31013G23KT P6SM SCT025 BKN110
     FM262000 33010KT P6SM BKN080=

USA.gov is the U.S. government's official web portal to all federal, state and local government web resources and services.